sensor_id;sensor_type;location;lat;lon;timestamp;pressure;altitude;pressure_sealevel;temperature;humidity
43553;BME280;29153;42.696;23.218;2022-12-18T00:00:50;95232.19;;;5.87;100.00
43553;BME280;29153;42.696;23.218;2022-12-18T00:03:22;95234.98;;;5.74;100.00
43553;BME280;29153;42.696;23.218;2022-12-18T00:05:52;95239.09;;;5.70;100.00
43553;BME280;29153;42.696;23.218;2022-12-18T00:08:31;95249.77;;;5.66;100.00
43553;BME280;29153;42.696;23.218;2022-12-18T00:11:03;95245.83;;;5.66;100.00
43553;BME280;29153;42.696;23.218;2022-12-18T00:13:30;95247.11;;;5.75;100.00
43553;BME280;29153;42.696;23.218;2022-12-18T00:16:12;95251.84;;;5.64;100.00
43553;BME280;29153;42.696;23.218;2022-12-18T00:18:43;95248.11;;;5.62;100.00
43553;BME280;29153;42.696;23.218;2022-12-18T00:21:19;95255.44;;;5.60;100.00
43553;BME280;29153;42.696;23.218;2022-12-18T00:23:53;95261.36;;;5.56;100.00
43553;BME280;29153;42.696;23.218;2022-12-18T00:26:27;95252.80;;;5.60;100.00
43553;BME280;29153;42.696;23.218;2022-12-18T00:29:01;95256.77;;;5.72;100.00
43553;BME280;29153;42.696;23.218;2022-12-18T00:31:30;95263.27;;;5.69;100.00
43553;BME280;29153;42.696;23.218;2022-12-18T00:34:08;95268.41;;;5.64;100.00
43553;BME280;29153;42.696;23.218;2022-12-18T00:36:40;95270.39;;;5.60;100.00
43553;BME280;29153;42.696;23.218;2022-12-18T00:39:22;95274.58;;;5.70;100.00
43553;BME280;29153;42.696;23.218;2022-12-18T00:41:53;95278.47;;;5.67;100.00
43553;BME280;29153;42.696;23.218;2022-12-18T00:44:44;95274.20;;;5.55;100.00
43553;BME280;29153;42.696;23.218;2022-12-18T00:47:14;95273.75;;;5.58;100.00
43553;BME280;29153;42.696;23.218;2022-12-18T00:49:46;95280.91;;;5.60;100.00
43553;BME280;29153;42.696;23.218;2022-12-18T00:52:18;95285.89;;;5.49;100.00
43553;BME280;29153;42.696;23.218;2022-12-18T00:54:58;95292.75;;;5.50;100.00
43553;BME280;29153;42.696;23.218;2022-12-18T00:57:24;95287.87;;;5.45;100.00
43553;BME280;29153;42.696;23.218;2022-12-18T00:59:55;95293.83;;;5.52;100.00
43553;BME280;29153;42.696;23.218;2022-12-18T01:02:27;95295.14;;;5.52;100.00
43553;BME280;29153;42.696;23.218;2022-12-18T01:04:56;95295.24;;;5.45;100.00
43553;BME280;29153;42.696;23.218;2022-12-18T01:07:28;95298.31;;;5.52;100.00
43553;BME280;29153;42.696;23.218;2022-12-18T01:09:57;95299.39;;;5.44;100.00
43553;BME280;29153;42.696;23.218;2022-12-18T01:12:34;95303.45;;;5.28;100.00
43553;BME280;29153;42.696;23.218;2022-12-18T01:15:06;95308.29;;;5.13;100.00
43553;BME280;29153;42.696;23.218;2022-12-18T01:17:36;95311.84;;;5.10;100.00
43553;BME280;29153;42.696;23.218;2022-12-18T01:20:11;95307.63;;;4.99;100.00
43553;BME280;29153;42.696;23.218;2022-12-18T01:22:46;95306.32;;;5.09;100.00
43553;BME280;29153;42.696;23.218;2022-12-18T01:25:20;95311.06;;;5.00;100.00
43553;BME280;29153;42.696;23.218;2022-12-18T01:28:02;95316.89;;;4.75;100.00
43553;BME280;29153;42.696;23.218;2022-12-18T01:30:32;95311.63;;;4.66;100.00
43553;BME280;29153;42.696;23.218;2022-12-18T01:33:23;95313.59;;;4.61;100.00
43553;BME280;29153;42.696;23.218;2022-12-18T01:35:48;95311.33;;;4.65;100.00
43553;BME280;29153;42.696;23.218;2022-12-18T01:38:24;95317.45;;;4.68;100.00
43553;BME280;29153;42.696;23.218;2022-12-18T01:40:58;95323.42;;;4.56;100.00
43553;BME280;29153;42.696;23.218;2022-12-18T01:43:51;95313.80;;;4.59;100.00
43553;BME280;29153;42.696;23.218;2022-12-18T01:46:31;95324.31;;;4.69;100.00
43553;BME280;29153;42.696;23.218;2022-12-18T01:49:02;95328.77;;;4.77;100.00
43553;BME280;29153;42.696;23.218;2022-12-18T01:51:33;95329.41;;;4.73;100.00
43553;BME280;29153;42.696;23.218;2022-12-18T01:54:23;95326.75;;;4.54;100.00
43553;BME280;29153;42.696;23.218;2022-12-18T01:56:56;95312.63;;;4.55;100.00
43553;BME280;29153;42.696;23.218;2022-12-18T01:59:27;95326.87;;;4.66;100.00
43553;BME280;29153;42.696;23.218;2022-12-18T02:01:59;95332.69;;;4.68;100.00
43553;BME280;29153;42.696;23.218;2022-12-18T02:04:36;95331.17;;;4.70;100.00
43553;BME280;29153;42.696;23.218;2022-12-18T02:07:51;95330.27;;;4.67;100.00
43553;BME280;29153;42.696;23.218;2022-12-18T02:13:21;95336.56;;;4.66;100.00
43553;BME280;29153;42.696;23.218;2022-12-18T02:16:00;95330.66;;;4.70;100.00
43553;BME280;29153;42.696;23.218;2022-12-18T02:18:38;95341.89;;;4.77;100.00
43553;BME280;29153;42.696;23.218;2022-12-18T02:26:45;95358.65;;;4.76;100.00
43553;BME280;29153;42.696;23.218;2022-12-18T02:29:24;95349.41;;;4.83;100.00
43553;BME280;29153;42.696;23.218;2022-12-18T02:31:54;95358.66;;;4.85;100.00
43553;BME280;29153;42.696;23.218;2022-12-18T02:34:27;95359.89;;;4.74;100.00
43553;BME280;29153;42.696;23.218;2022-12-18T02:37:01;95351.66;;;4.70;100.00
43553;BME280;29153;42.696;23.218;2022-12-18T02:39:38;95359.52;;;4.79;100.00
43553;BME280;29153;42.696;23.218;2022-12-18T02:42:12;95361.34;;;4.70;100.00
43553;BME280;29153;42.696;23.218;2022-12-18T02:44:49;95365.65;;;4.73;100.00
43553;BME280;29153;42.696;23.218;2022-12-18T02:47:24;95370.18;;;4.50;100.00
43553;BME280;29153;42.696;23.218;2022-12-18T02:50:10;95369.88;;;4.49;100.00
43553;BME280;29153;42.696;23.218;2022-12-18T02:58:57;95372.30;;;4.51;100.00
43553;BME280;29153;42.696;23.218;2022-12-18T03:06:54;95383.46;;;4.55;100.00
43553;BME280;29153;42.696;23.218;2022-12-18T03:09:35;95384.38;;;4.43;100.00
43553;BME280;29153;42.696;23.218;2022-12-18T03:12:09;95381.02;;;4.36;100.00
43553;BME280;29153;42.696;23.218;2022-12-18T03:15:24;95385.71;;;4.27;100.00
43553;BME280;29153;42.696;23.218;2022-12-18T03:17:57;95386.38;;;4.16;100.00
43553;BME280;29153;42.696;23.218;2022-12-18T03:20:38;95390.67;;;4.10;100.00
43553;BME280;29153;42.696;23.218;2022-12-18T03:23:09;95389.59;;;4.02;100.00
43553;BME280;29153;42.696;23.218;2022-12-18T03:25:44;95397.05;;;4.05;100.00
43553;BME280;29153;42.696;23.218;2022-12-18T03:28:19;95396.31;;;4.07;100.00
43553;BME280;29153;42.696;23.218;2022-12-18T03:30:57;95410.53;;;4.09;100.00
43553;BME280;29153;42.696;23.218;2022-12-18T03:33:34;95412.02;;;4.14;100.00
43553;BME280;29153;42.696;23.218;2022-12-18T03:36:08;95418.34;;;4.16;100.00
43553;BME280;29153;42.696;23.218;2022-12-18T03:38:48;95416.36;;;4.11;100.00
43553;BME280;29153;42.696;23.218;2022-12-18T03:47:41;95427.37;;;4.10;100.00
43553;BME280;29153;42.696;23.218;2022-12-18T03:50:10;95430.75;;;4.02;100.00
43553;BME280;29153;42.696;23.218;2022-12-18T03:52:38;95433.63;;;4.09;100.00
43553;BME280;29153;42.696;23.218;2022-12-18T03:55:16;95447.92;;;4.13;100.00
43553;BME280;29153;42.696;23.218;2022-12-18T03:57:46;95445.80;;;4.13;100.00
43553;BME280;29153;42.696;23.218;2022-12-18T04:00:20;95452.43;;;4.00;100.00
43553;BME280;29153;42.696;23.218;2022-12-18T04:02:52;95445.36;;;3.85;100.00
43553;BME280;29153;42.696;23.218;2022-12-18T04:05:24;95443.63;;;3.88;100.00
43553;BME280;29153;42.696;23.218;2022-12-18T04:07:59;95438.58;;;3.86;100.00
43553;BME280;29153;42.696;23.218;2022-12-18T04:10:36;95438.58;;;3.86;100.00
43553;BME280;29153;42.696;23.218;2022-12-18T04:13:06;95449.67;;;3.88;100.00
43553;BME280;29153;42.696;23.218;2022-12-18T04:15:39;95452.48;;;3.87;100.00
43553;BME280;29153;42.696;23.218;2022-12-18T04:18:14;95458.28;;;3.80;100.00
43553;BME280;29153;42.696;23.218;2022-12-18T04:20:52;95456.98;;;3.73;100.00
43553;BME280;29153;42.696;23.218;2022-12-18T04:23:38;95461.95;;;3.65;100.00
43553;BME280;29153;42.696;23.218;2022-12-18T04:26:03;95472.55;;;3.61;100.00
43553;BME280;29153;42.696;23.218;2022-12-18T04:28:36;95476.91;;;3.52;100.00
43553;BME280;29153;42.696;23.218;2022-12-18T04:31:11;95484.88;;;3.54;100.00
43553;BME280;29153;42.696;23.218;2022-12-18T04:33:47;95495.43;;;3.63;100.00
43553;BME280;29153;42.696;23.218;2022-12-18T04:36:24;95494.00;;;3.68;100.00
43553;BME280;29153;42.696;23.218;2022-12-18T04:39:01;95495.47;;;3.73;100.00
43553;BME280;29153;42.696;23.218;2022-12-18T04:41:33;95453.37;;;3.39;100.00
43553;BME280;29153;42.696;23.218;2022-12-18T04:44:09;95498.44;;;3.67;100.00
43553;BME280;29153;42.696;23.218;2022-12-18T04:46:45;95503.48;;;3.55;100.00
43553;BME280;29153;42.696;23.218;2022-12-18T04:49:35;95512.27;;;3.58;100.00
43553;BME280;29153;42.696;23.218;2022-12-18T04:52:09;95515.47;;;3.60;100.00
43553;BME280;29153;42.696;23.218;2022-12-18T04:54:44;95516.16;;;3.65;100.00
43553;BME280;29153;42.696;23.218;2022-12-18T04:57:18;95526.91;;;3.73;100.00
43553;BME280;29153;42.696;23.218;2022-12-18T04:59:56;95523.60;;;3.68;100.00
43553;BME280;29153;42.696;23.218;2022-12-18T05:02:27;95525.59;;;3.50;100.00
43553;BME280;29153;42.696;23.218;2022-12-18T05:05:05;95523.12;;;3.55;100.00
43553;BME280;29153;42.696;23.218;2022-12-18T05:07:37;95530.41;;;3.53;100.00
43553;BME280;29153;42.696;23.218;2022-12-18T05:10:10;95531.55;;;3.42;100.00
43553;BME280;29153;42.696;23.218;2022-12-18T05:12:40;95536.36;;;3.38;100.00
43553;BME280;29153;42.696;23.218;2022-12-18T05:15:18;95539.70;;;3.36;100.00
43553;BME280;29153;42.696;23.218;2022-12-18T05:17:55;95545.86;;;3.33;100.00
43553;BME280;29153;42.696;23.218;2022-12-18T05:20:45;95550.68;;;3.36;100.00
43553;BME280;29153;42.696;23.218;2022-12-18T05:23:17;95518.38;;;3.19;100.00
43553;BME280;29153;42.696;23.218;2022-12-18T05:26:06;95560.55;;;3.40;100.00
43553;BME280;29153;42.696;23.218;2022-12-18T05:28:38;95556.01;;;3.45;100.00
43553;BME280;29153;42.696;23.218;2022-12-18T05:31:13;95561.23;;;3.38;100.00
43553;BME280;29153;42.696;23.218;2022-12-18T05:33:53;95566.38;;;3.49;100.00
43553;BME280;29153;42.696;23.218;2022-12-18T05:36:33;95569.73;;;3.34;100.00
43553;BME280;29153;42.696;23.218;2022-12-18T05:39:09;95572.85;;;3.33;100.00
43553;BME280;29153;42.696;23.218;2022-12-18T05:41:44;95579.98;;;3.35;100.00
43553;BME280;29153;42.696;23.218;2022-12-18T05:44:13;95585.82;;;3.44;100.00
43553;BME280;29153;42.696;23.218;2022-12-18T05:46:50;95590.97;;;3.28;100.00
43553;BME280;29153;42.696;23.218;2022-12-18T05:49:23;95597.30;;;3.30;100.00
43553;BME280;29153;42.696;23.218;2022-12-18T05:51:54;95594.19;;;3.30;99.05
43553;BME280;29153;42.696;23.218;2022-12-18T05:54:33;95597.21;;;3.27;99.66
43553;BME280;29153;42.696;23.218;2022-12-18T05:57:09;95596.11;;;3.32;99.05
43553;BME280;29153;42.696;23.218;2022-12-18T05:59:43;95597.92;;;3.12;100.00
43553;BME280;29153;42.696;23.218;2022-12-18T06:02:28;95596.42;;;3.20;100.00
43553;BME280;29153;42.696;23.218;2022-12-18T06:04:58;95606.59;;;3.32;100.00
43553;BME280;29153;42.696;23.218;2022-12-18T06:07:34;95613.62;;;3.38;100.00
43553;BME280;29153;42.696;23.218;2022-12-18T06:10:10;95605.07;;;3.40;100.00
43553;BME280;29153;42.696;23.218;2022-12-18T06:12:42;95613.55;;;3.42;100.00
43553;BME280;29153;42.696;23.218;2022-12-18T06:15:42;95613.23;;;3.54;100.00
43553;BME280;29153;42.696;23.218;2022-12-18T06:17:57;95622.40;;;3.54;100.00
43553;BME280;29153;42.696;23.218;2022-12-18T06:20:34;95623.98;;;3.55;99.66
43553;BME280;29153;42.696;23.218;2022-12-18T06:23:08;95629.83;;;3.51;99.10
43553;BME280;29153;42.696;23.218;2022-12-18T06:25:50;95635.29;;;3.49;99.32
43553;BME280;29153;42.696;23.218;2022-12-18T06:28:18;95625.81;;;3.48;98.56
43553;BME280;29153;42.696;23.218;2022-12-18T06:30:48;95635.09;;;3.38;99.34
43553;BME280;29153;42.696;23.218;2022-12-18T06:33:25;95635.19;;;3.40;99.42
43553;BME280;29153;42.696;23.218;2022-12-18T06:36:16;95628.74;;;3.49;99.34
43553;BME280;29153;42.696;23.218;2022-12-18T06:38:44;95643.03;;;3.47;99.45
43553;BME280;29153;42.696;23.218;2022-12-18T06:41:20;95641.53;;;3.48;99.15
43553;BME280;29153;42.696;23.218;2022-12-18T06:43:55;95643.73;;;3.51;98.84
43553;BME280;29153;42.696;23.218;2022-12-18T06:49:09;95654.81;;;3.47;99.04
43553;BME280;29153;42.696;23.218;2022-12-18T06:51:36;95659.35;;;3.55;99.31
43553;BME280;29153;42.696;23.218;2022-12-18T06:54:08;95667.31;;;3.51;98.73
43553;BME280;29153;42.696;23.218;2022-12-18T06:56:40;95665.00;;;3.52;98.93
43553;BME280;29153;42.696;23.218;2022-12-18T06:59:14;95662.59;;;3.44;99.78
43553;BME280;29153;42.696;23.218;2022-12-18T07:05:02;95660.98;;;3.63;98.98
43553;BME280;29153;42.696;23.218;2022-12-18T07:07:38;95671.86;;;3.66;97.05
43553;BME280;29153;42.696;23.218;2022-12-18T07:10:17;95677.91;;;3.67;96.03
43553;BME280;29153;42.696;23.218;2022-12-18T07:12:58;95672.45;;;3.55;96.25
43553;BME280;29153;42.696;23.218;2022-12-18T07:18:01;95681.13;;;3.49;96.90
43553;BME280;29153;42.696;23.218;2022-12-18T07:20:38;95676.00;;;3.58;97.57
43553;BME280;29153;42.696;23.218;2022-12-18T07:23:19;95681.52;;;3.73;96.99
43553;BME280;29153;42.696;23.218;2022-12-18T07:25:46;95683.53;;;3.77;97.75
43553;BME280;29153;42.696;23.218;2022-12-18T07:28:35;95687.37;;;3.75;97.64
43553;BME280;29153;42.696;23.218;2022-12-18T07:31:06;95693.22;;;3.83;97.15
43553;BME280;29153;42.696;23.218;2022-12-18T07:33:53;95685.16;;;3.85;97.20
43553;BME280;29153;42.696;23.218;2022-12-18T07:36:29;95687.86;;;3.94;95.68
43553;BME280;29153;42.696;23.218;2022-12-18T07:38:59;95690.00;;;3.88;95.27
43553;BME280;29153;42.696;23.218;2022-12-18T07:41:38;95701.29;;;3.88;95.13
43553;BME280;29153;42.696;23.218;2022-12-18T07:44:10;95673.28;;;3.76;93.58
43553;BME280;29153;42.696;23.218;2022-12-18T07:46:41;95699.69;;;3.81;94.77
43553;BME280;29153;42.696;23.218;2022-12-18T07:49:09;95697.75;;;3.65;95.20
43553;BME280;29153;42.696;23.218;2022-12-18T07:51:45;95698.05;;;3.60;95.07
43553;BME280;29153;42.696;23.218;2022-12-18T07:54:21;95699.08;;;3.59;94.81
43553;BME280;29153;42.696;23.218;2022-12-18T07:56:59;95712.56;;;3.49;96.04
43553;BME280;29153;42.696;23.218;2022-12-18T07:59:31;95716.30;;;3.57;95.01
43553;BME280;29153;42.696;23.218;2022-12-18T08:02:04;95718.98;;;3.47;95.55
43553;BME280;29153;42.696;23.218;2022-12-18T08:04:34;95723.42;;;3.40;95.16
43553;BME280;29153;42.696;23.218;2022-12-18T08:07:03;95679.17;;;3.14;95.40
43553;BME280;29153;42.696;23.218;2022-12-18T08:09:33;95738.55;;;3.44;96.10
43553;BME280;29153;42.696;23.218;2022-12-18T08:12:19;95734.11;;;3.51;95.42
43553;BME280;29153;42.696;23.218;2022-12-18T08:14:52;95737.23;;;3.44;95.88
43553;BME280;29153;42.696;23.218;2022-12-18T08:17:31;95735.94;;;3.57;96.17
43553;BME280;29153;42.696;23.218;2022-12-18T08:20:07;95739.66;;;3.46;95.61
43553;BME280;29153;42.696;23.218;2022-12-18T08:22:43;95746.99;;;3.40;95.56
43553;BME280;29153;42.696;23.218;2022-12-18T08:25:15;95748.21;;;3.37;95.54
43553;BME280;29153;42.696;23.218;2022-12-18T08:27:54;95746.59;;;3.36;95.51
43553;BME280;29153;42.696;23.218;2022-12-18T08:30:29;95748.33;;;3.46;94.51
43553;BME280;29153;42.696;23.218;2022-12-18T08:33:04;95754.13;;;3.29;95.72
43553;BME280;29153;42.696;23.218;2022-12-18T08:35:44;95754.04;;;3.39;95.81
43553;BME280;29153;42.696;23.218;2022-12-18T08:38:21;95757.09;;;3.49;96.19
43553;BME280;29153;42.696;23.218;2022-12-18T08:40:47;95761.71;;;3.47;95.71
43553;BME280;29153;42.696;23.218;2022-12-18T08:43:23;95755.47;;;3.48;95.68
43553;BME280;29153;42.696;23.218;2022-12-18T08:46:17;95766.28;;;3.62;94.37
43553;BME280;29153;42.696;23.218;2022-12-18T08:48:59;95765.19;;;3.68;93.86
43553;BME280;29153;42.696;23.218;2022-12-18T08:51:27;95773.13;;;3.77;94.74
43553;BME280;29153;42.696;23.218;2022-12-18T08:54:02;95767.70;;;3.78;94.22
43553;BME280;29153;42.696;23.218;2022-12-18T08:56:33;95764.66;;;3.68;94.94
43553;BME280;29153;42.696;23.218;2022-12-18T08:59:06;95763.66;;;3.69;94.87
43553;BME280;29153;42.696;23.218;2022-12-18T09:01:36;95770.45;;;3.81;93.63
43553;BME280;29153;42.696;23.218;2022-12-18T09:04:09;95768.01;;;3.86;93.86
43553;BME280;29153;42.696;23.218;2022-12-18T09:06:45;95763.87;;;3.94;93.69
43553;BME280;29153;42.696;23.218;2022-12-18T09:09:15;95767.82;;;4.00;93.21
43553;BME280;29153;42.696;23.218;2022-12-18T09:12:00;95772.77;;;3.93;91.89
43553;BME280;29153;42.696;23.218;2022-12-18T09:17:06;95766.21;;;4.19;91.09
43553;BME280;29153;42.696;23.218;2022-12-18T09:19:35;95769.42;;;4.08;90.66
43553;BME280;29153;42.696;23.218;2022-12-18T09:22:09;95769.02;;;4.11;90.80
43553;BME280;29153;42.696;23.218;2022-12-18T09:24:44;95764.27;;;4.24;90.53
43553;BME280;29153;42.696;23.218;2022-12-18T09:27:13;95764.27;;;4.24;89.59
43553;BME280;29153;42.696;23.218;2022-12-18T09:29:49;95765.89;;;4.11;89.19
43553;BME280;29153;42.696;23.218;2022-12-18T09:32:21;95768.52;;;4.31;88.42
43553;BME280;29153;42.696;23.218;2022-12-18T09:35:08;95770.73;;;4.21;87.64
43553;BME280;29153;42.696;23.218;2022-12-18T09:37:33;95769.83;;;4.31;87.87
43553;BME280;29153;42.696;23.218;2022-12-18T09:40:09;95774.77;;;4.30;86.81
43553;BME280;29153;42.696;23.218;2022-12-18T09:42:40;95777.91;;;4.23;87.31
43553;BME280;29153;42.696;23.218;2022-12-18T09:45:29;95775.55;;;4.37;87.38
43553;BME280;29153;42.696;23.218;2022-12-18T09:48:09;95772.60;;;4.49;86.60
43553;BME280;29153;42.696;23.218;2022-12-18T09:50:37;95771.87;;;4.65;86.57
43553;BME280;29153;42.696;23.218;2022-12-18T09:53:21;95764.31;;;4.66;85.88
43553;BME280;29153;42.696;23.218;2022-12-18T09:55:54;95766.79;;;4.34;85.15
43553;BME280;29153;42.696;23.218;2022-12-18T09:58:47;95775.66;;;4.33;85.81
43553;BME280;29153;42.696;23.218;2022-12-18T10:01:23;95772.56;;;4.27;87.01
43553;BME280;29153;42.696;23.218;2022-12-18T10:04:08;95767.99;;;4.38;86.46
43553;BME280;29153;42.696;23.218;2022-12-18T10:06:52;95767.36;;;4.56;86.11
43553;BME280;29153;42.696;23.218;2022-12-18T10:12:42;95768.47;;;4.57;85.54
43553;BME280;29153;42.696;23.218;2022-12-18T10:27:39;95776.73;;;4.61;85.68
43553;BME280;29153;42.696;23.218;2022-12-18T10:30:16;95769.89;;;4.47;84.41
43553;BME280;29153;42.696;23.218;2022-12-18T10:32:47;95776.38;;;4.31;85.37
43553;BME280;29153;42.696;23.218;2022-12-18T10:35:29;95774.63;;;4.41;85.17
43553;BME280;29153;42.696;23.218;2022-12-18T10:41:00;95772.41;;;4.51;85.14
43553;BME280;29153;42.696;23.218;2022-12-18T10:43:36;95773.16;;;4.71;84.13
43553;BME280;29153;42.696;23.218;2022-12-18T10:46:25;95774.78;;;4.79;84.47
43553;BME280;29153;42.696;23.218;2022-12-18T10:49:01;95774.83;;;4.88;83.92
43553;BME280;29153;42.696;23.218;2022-12-18T10:51:36;95763.86;;;4.82;81.20
43553;BME280;29153;42.696;23.218;2022-12-18T10:54:33;95771.50;;;4.90;81.66
43553;BME280;29153;42.696;23.218;2022-12-18T11:03:02;95770.61;;;4.87;82.03
43553;BME280;29153;42.696;23.218;2022-12-18T11:05:33;95766.75;;;4.96;80.68
43553;BME280;29153;42.696;23.218;2022-12-18T11:08:05;95769.80;;;4.80;78.68
43553;BME280;29153;42.696;23.218;2022-12-18T11:10:45;95776.20;;;4.68;80.69
43553;BME280;29153;42.696;23.218;2022-12-18T11:13:20;95776.94;;;4.66;79.04
43553;BME280;29153;42.696;23.218;2022-12-18T11:15:58;95774.39;;;4.62;80.23
43553;BME280;29153;42.696;23.218;2022-12-18T11:18:30;95779.02;;;4.67;78.11
43553;BME280;29153;42.696;23.218;2022-12-18T11:21:16;95775.67;;;4.82;79.94
43553;BME280;29153;42.696;23.218;2022-12-18T11:23:54;95772.12;;;4.85;80.31
43553;BME280;29153;42.696;23.218;2022-12-18T11:26:35;95779.19;;;4.91;80.46
43553;BME280;29153;42.696;23.218;2022-12-18T11:29:16;95790.19;;;4.91;77.49
43553;BME280;29153;42.696;23.218;2022-12-18T11:31:44;95786.44;;;4.89;79.36
43553;BME280;29153;42.696;23.218;2022-12-18T11:36:54;95785.89;;;4.68;77.38
43553;BME280;29153;42.696;23.218;2022-12-18T11:45:31;95779.64;;;4.69;78.59
43553;BME280;29153;42.696;23.218;2022-12-18T11:48:09;95782.21;;;4.53;78.71
43553;BME280;29153;42.696;23.218;2022-12-18T11:50:53;95786.03;;;4.50;79.56
43553;BME280;29153;42.696;23.218;2022-12-18T11:53:28;95783.09;;;4.49;77.27
43553;BME280;29153;42.696;23.218;2022-12-18T12:01:55;95771.91;;;4.51;80.42
43553;BME280;29153;42.696;23.218;2022-12-18T12:07:51;95770.79;;;4.50;80.90
43553;BME280;29153;42.696;23.218;2022-12-18T12:13:29;95779.86;;;4.61;79.71
43553;BME280;29153;42.696;23.218;2022-12-18T12:16:21;95769.67;;;4.62;79.79
43553;BME280;29153;42.696;23.218;2022-12-18T12:22:27;95772.32;;;4.42;80.60
43553;BME280;29153;42.696;23.218;2022-12-18T12:24:44;95774.05;;;4.39;82.23
43553;BME280;29153;42.696;23.218;2022-12-18T12:30:33;95771.72;;;4.33;82.08
43553;BME280;29153;42.696;23.218;2022-12-18T12:36:07;95777.09;;;4.36;82.19
43553;BME280;29153;42.696;23.218;2022-12-18T12:38:50;95773.63;;;4.48;83.17
43553;BME280;29153;42.696;23.218;2022-12-18T12:41:20;95776.17;;;4.39;81.42
43553;BME280;29153;42.696;23.218;2022-12-18T12:44:24;95772.03;;;4.34;81.81
43553;BME280;29153;42.696;23.218;2022-12-18T12:46:58;95774.74;;;4.37;82.02
43553;BME280;29153;42.696;23.218;2022-12-18T12:49:30;95771.31;;;4.43;81.95
43553;BME280;29153;42.696;23.218;2022-12-18T12:54:54;95788.77;;;4.46;81.15
43553;BME280;29153;42.696;23.218;2022-12-18T12:57:21;95787.55;;;4.42;81.97
43553;BME280;29153;42.696;23.218;2022-12-18T13:03:01;95787.08;;;4.36;80.44
43553;BME280;29153;42.696;23.218;2022-12-18T13:05:56;95785.33;;;4.46;81.77
43553;BME280;29153;42.696;23.218;2022-12-18T13:08:34;95790.07;;;4.46;82.83
43553;BME280;29153;42.696;23.218;2022-12-18T13:11:04;95788.27;;;4.47;79.81
43553;BME280;29153;42.696;23.218;2022-12-18T13:14:02;95793.92;;;4.44;81.33
43553;BME280;29153;42.696;23.218;2022-12-18T13:16:32;95796.55;;;4.44;81.06
43553;BME280;29153;42.696;23.218;2022-12-18T13:19:18;95804.92;;;4.43;81.06
43553;BME280;29153;42.696;23.218;2022-12-18T13:21:38;95810.14;;;4.50;82.32
43553;BME280;29153;42.696;23.218;2022-12-18T13:24:28;95814.41;;;4.44;82.32
43553;BME280;29153;42.696;23.218;2022-12-18T13:27:00;95810.34;;;4.55;81.17
43553;BME280;29153;42.696;23.218;2022-12-18T13:29:45;95814.78;;;4.54;81.48
43553;BME280;29153;42.696;23.218;2022-12-18T13:32:27;95816.92;;;4.48;81.10
43553;BME280;29153;42.696;23.218;2022-12-18T13:43:41;95822.57;;;4.52;79.59
43553;BME280;29153;42.696;23.218;2022-12-18T13:46:28;95817.93;;;4.47;80.88
43553;BME280;29153;42.696;23.218;2022-12-18T13:49:01;95819.24;;;4.47;79.67
43553;BME280;29153;42.696;23.218;2022-12-18T13:51:33;95829.84;;;4.30;81.61
43553;BME280;29153;42.696;23.218;2022-12-18T13:56:44;95836.48;;;4.20;81.76
43553;BME280;29153;42.696;23.218;2022-12-18T13:59:15;95833.88;;;4.26;82.71
43553;BME280;29153;42.696;23.218;2022-12-18T14:01:46;95837.31;;;4.13;81.56
43553;BME280;29153;42.696;23.218;2022-12-18T14:04:32;95840.04;;;4.23;80.90
43553;BME280;29153;42.696;23.218;2022-12-18T14:07:07;95841.13;;;4.24;80.54
43553;BME280;29153;42.696;23.218;2022-12-18T14:09:55;95851.83;;;4.16;79.61
43553;BME280;29153;42.696;23.218;2022-12-18T14:12:27;95845.17;;;4.20;77.78
43553;BME280;29153;42.696;23.218;2022-12-18T14:15:33;95842.85;;;4.21;79.99
43553;BME280;29153;42.696;23.218;2022-12-18T14:18:29;95841.02;;;4.15;78.98
43553;BME280;29153;42.696;23.218;2022-12-18T14:20:58;95843.64;;;4.15;77.41
43553;BME280;29153;42.696;23.218;2022-12-18T14:23:40;95849.80;;;4.11;79.32
43553;BME280;29153;42.696;23.218;2022-12-18T14:26:27;95847.20;;;4.18;80.92
43553;BME280;29153;42.696;23.218;2022-12-18T14:32:21;95856.06;;;4.17;78.93
43553;BME280;29153;42.696;23.218;2022-12-18T14:34:52;95858.50;;;4.19;80.86
43553;BME280;29153;42.696;23.218;2022-12-18T14:37:27;95862.83;;;4.22;80.41
43553;BME280;29153;42.696;23.218;2022-12-18T14:40:01;95856.58;;;4.10;78.96
43553;BME280;29153;42.696;23.218;2022-12-18T14:42:33;95855.97;;;4.21;77.81
43553;BME280;29153;42.696;23.218;2022-12-18T14:48:55;95852.84;;;4.02;78.12
43553;BME280;29153;42.696;23.218;2022-12-18T14:50:50;95850.31;;;3.98;78.24
43553;BME280;29153;42.696;23.218;2022-12-18T14:53:23;95859.05;;;3.94;78.61
43553;BME280;29153;42.696;23.218;2022-12-18T14:55:58;95859.77;;;3.99;77.56
43553;BME280;29153;42.696;23.218;2022-12-18T14:58:24;95860.59;;;3.93;79.01
43553;BME280;29153;42.696;23.218;2022-12-18T15:00:58;95864.61;;;3.95;77.02
43553;BME280;29153;42.696;23.218;2022-12-18T15:03:32;95870.76;;;3.92;75.78
43553;BME280;29153;42.696;23.218;2022-12-18T15:06:14;95868.02;;;3.76;76.23
43553;BME280;29153;42.696;23.218;2022-12-18T15:08:35;95866.17;;;3.70;76.05
43553;BME280;29153;42.696;23.218;2022-12-18T15:11:23;95868.02;;;3.76;76.39
43553;BME280;29153;42.696;23.218;2022-12-18T15:13:32;95863.98;;;3.80;76.67
43553;BME280;29153;42.696;23.218;2022-12-18T15:16:02;95868.70;;;3.74;76.44
43553;BME280;29153;42.696;23.218;2022-12-18T15:18:32;95869.70;;;3.73;77.16
43553;BME280;29153;42.696;23.218;2022-12-18T15:21:08;95870.78;;;3.61;76.96
43553;BME280;29153;42.696;23.218;2022-12-18T15:26:16;95873.44;;;3.75;77.09
43553;BME280;29153;42.696;23.218;2022-12-18T15:28:55;95869.16;;;3.60;77.71
43553;BME280;29153;42.696;23.218;2022-12-18T15:31:33;95875.57;;;3.51;77.28
43553;BME280;29153;42.696;23.218;2022-12-18T15:34:16;95885.05;;;3.52;77.47
43553;BME280;29153;42.696;23.218;2022-12-18T15:36:43;95891.83;;;3.57;78.31
43553;BME280;29153;42.696;23.218;2022-12-18T15:39:12;95855.98;;;3.17;78.38